Time;durP1;ratioP1;P1;durP2;ratioP2;P2;SDS_P1;SDS_P2;PMS_P1;PMS_P2;Temp;Humidity;BMP_temperature;BMP_pressure;BME280_temperature;BME280_humidity;BME280_pressure;Samples;Min_cycle;Max_cycle;Signal;HPM_P1;HPM_P2
2023/03/25 14:31:16;;;;;;;8.90;1.35;;;;;;;23.37;24.62;93912.16;5067554;22;20060;-90
2023/03/25 14:34:03;;;;;;;9.00;1.30;;;;;;;23.61;24.54;93906.75;5045190;28;20112;-88
2023/03/25 14:36:38;;;;;;;7.07;1.10;;;;;;;23.19;24.68;93909.19;5062483;28;20070;-89
2023/03/25 14:39:28;;;;;;;4.50;1.08;;;;;;;23.66;25.52;93914.44;5061981;28;20322;-90
2023/03/25 14:42:06;;;;;;;7.55;1.33;;;;;;;23.83;25.24;93905.91;5061715;28;20116;-90
2023/03/25 14:44:33;;;;;;;5.45;1.10;;;;;;;23.79;24.24;93905.06;5062750;28;20025;-90
2023/03/25 14:47:19;;;;;;;5.72;1.70;;;;;;;23.54;24.38;93902.06;5045193;28;20115;-89
2023/03/25 14:49:50;;;;;;;10.13;1.30;;;;;;;23.63;25.09;93912.50;5051668;28;20064;-91
2023/03/25 14:52:19;;;;;;;4.80;1.15;;;;;;;24.57;25.92;93917.03;5045263;28;20036;-90
2023/03/25 14:54:49;;;;;;;7.78;1.50;;;;;;;24.16;25.29;93900.16;5061646;28;20029;-89
2023/03/25 14:57:17;;;;;;;4.22;0.90;;;;;;;25.20;23.84;93907.63;5045280;28;20326;-90
2023/03/25 14:59:48;;;;;;;6.30;1.55;;;;;;;24.37;24.56;93889.69;5044204;28;20153;-90
2023/03/25 15:02:20;;;;;;;7.60;1.48;;;;;;;24.92;23.84;93892.88;5044828;28;20028;-90
2023/03/25 15:04:52;;;;;;;5.00;1.30;;;;;;;25.01;23.91;93896.00;5058364;28;20048;-89
2023/03/25 15:07:45;;;;;;;3.28;1.27;;;;;;;25.01;23.33;93897.91;5042091;28;20028;-88
2023/03/25 15:10:26;;;;;;;2.83;0.90;;;;;;;25.94;22.74;93900.41;5058000;28;20323;-87
2023/03/25 15:12:58;;;;;;;4.22;1.02;;;;;;;25.51;22.36;93879.50;5041991;28;20028;-89
2023/03/25 15:15:27;;;;;;;3.35;1.10;;;;;;;24.56;23.87;93912.81;5058379;28;20071;-88
2023/03/25 15:17:52;;;;;;;6.38;1.63;;;;;;;25.34;23.19;93904.28;5042030;28;20032;-90
2023/03/25 15:20:21;;;;;;;4.72;1.40;;;;;;;24.38;22.46;93914.56;5041190;28;20388;-89
2023/03/25 15:23:18;;;;;;;5.00;0.95;;;;;;;25.48;22.31;93912.44;5058117;28;20033;-90
2023/03/25 15:25:53;;;;;;;3.83;1.10;;;;;;;25.53;21.96;93914.75;5058996;28;20029;-89
2023/03/25 15:28:18;;;;;;;6.13;1.13;;;;;;;26.05;22.38;93900.44;5058157;28;20074;-89
2023/03/25 15:31:25;;;;;;;3.03;1.00;;;;;;;26.23;22.02;93907.78;5058684;28;20368;-90
2023/03/25 15:34:08;;;;;;;6.13;1.10;;;;;;;24.79;22.55;93921.84;5039085;28;20106;-89
2023/03/25 15:36:53;;;;;;;3.90;0.82;;;;;;;23.85;22.99;93914.31;5041612;28;20032;-90
2023/03/25 15:39:34;;;;;;;4.20;1.00;;;;;;;24.56;23.60;93910.13;5057759;28;20025;-89
2023/03/25 15:42:12;;;;;;;5.25;1.30;;;;;;;24.29;23.41;93880.81;5057322;28;20587;-89
2023/03/25 15:45:11;;;;;;;7.70;1.58;;;;;;;24.53;24.18;93924.25;5057664;28;20036;-88
2023/03/25 15:47:45;;;;;;;4.25;1.15;;;;;;;24.49;22.66;93912.75;5041429;28;20083;-91
2023/03/25 15:50:34;;;;;;;3.47;0.80;;;;;;;25.29;22.93;93916.09;5040710;28;20025;-90
2023/03/25 15:53:09;;;;;;;3.67;1.10;;;;;;;23.81;22.67;93916.16;5058527;28;20063;-89
2023/03/25 15:55:37;;;;;;;3.60;1.10;;;;;;;24.05;23.56;93927.56;5057533;28;20025;-90
2023/03/25 15:58:05;;;;;;;8.15;1.55;;;;;;;23.95;22.93;93915.59;5057311;28;20429;-91
2023/03/25 16:00:37;;;;;;;5.05;1.00;;;;;;;23.66;24.02;93915.22;5056904;28;20025;-90
2023/03/25 16:03:12;;;;;;;5.60;1.20;;;;;;;23.44;23.73;93919.50;5040437;28;20155;-89
2023/03/25 16:05:44;;;;;;;4.05;1.23;;;;;;;23.60;23.88;93931.94;5040777;28;20090;-88
2023/03/25 16:08:16;;;;;;;4.75;1.17;;;;;;;23.65;23.76;93924.38;5040810;28;20079;-90
2023/03/25 16:10:43;;;;;;;3.47;0.98;;;;;;;23.74;24.34;93921.44;5049860;28;20480;-89
2023/03/25 16:13:11;;;;;;;3.13;1.15;;;;;;;24.40;23.23;93933.69;5076634;28;20020;-89
2023/03/25 16:15:37;;;;;;;7.47;1.35;;;;;;;23.75;23.83;93924.91;5059273;28;20056;-89
2023/03/25 16:18:05;;;;;;;2.13;0.85;;;;;;;22.97;25.18;93918.78;5077183;28;20420;-89
2023/03/25 16:20:33;;;;;;;5.70;1.27;;;;;;;23.53;24.43;93911.22;5076570;28;20027;-88
2023/03/25 16:22:59;;;;;;;5.60;1.13;;;;;;;23.85;23.81;93922.34;5077067;28;20306;-89
2023/03/25 16:25:36;;;;;;;2.17;0.90;;;;;;;23.60;24.12;93927.38;5076947;28;20024;-90
2023/03/25 16:28:06;;;;;;;2.13;0.93;;;;;;;22.92;24.53;93913.75;5076769;28;20399;-89
2023/03/25 16:30:35;;;;;;;5.22;1.63;;;;;;;22.79;24.56;93921.94;5077556;28;20027;-89
2023/03/25 16:33:06;;;;;;;3.65;1.20;;;;;;;21.63;25.51;93917.06;5076358;28;20032;-87
2023/03/25 16:35:40;;;;;;;3.78;1.08;;;;;;;21.45;25.46;93920.13;5076484;28;20417;-88
2023/03/25 16:38:06;;;;;;;6.00;1.10;;;;;;;21.70;25.55;93924.47;5060137;28;20028;-90
2023/03/25 16:40:36;;;;;;;3.45;1.08;;;;;;;21.45;25.69;93919.34;5059668;28;20089;-89
2023/03/25 16:43:04;;;;;;;3.22;1.23;;;;;;;21.51;26.16;93923.25;5076905;28;20024;-89
2023/03/25 16:45:30;;;;;;;5.60;1.25;;;;;;;21.04;27.99;93925.66;5060350;28;20429;-88
2023/03/25 16:47:56;;;;;;;7.88;1.33;;;;;;;21.54;27.34;93941.25;5076603;28;20341;-88
2023/03/25 16:50:23;;;;;;;5.45;1.30;;;;;;;20.94;28.32;93942.16;5076115;28;20024;-88
2023/03/25 16:52:49;;;;;;;4.13;1.48;;;;;;;21.00;28.66;93940.78;5076478;28;20021;-88
2023/03/25 16:55:31;;;;;;;5.35;1.73;;;;;;;20.99;28.67;93941.13;5059944;28;20020;-89
2023/03/25 16:57:59;;;;;;;5.65;1.52;;;;;;;20.66;29.75;93943.00;5059926;28;20027;-89
2023/03/25 17:00:36;;;;;;;3.50;1.25;;;;;;;21.26;30.06;93971.47;5075862;28;20027;-88
2023/03/25 17:03:04;;;;;;;3.30;1.17;;;;;;;20.54;30.67;93953.69;5059538;28;20025;-88
2023/03/25 17:05:30;;;;;;;5.13;1.58;;;;;;;20.33;31.29;93955.44;5076520;28;20020;-89
2023/03/25 17:07:59;;;;;;;7.40;1.60;;;;;;;20.36;31.42;93959.28;5076274;28;20085;-91
2023/03/25 17:10:30;;;;;;;5.47;1.38;;;;;;;21.10;30.38;93962.72;5075526;28;20020;-89
2023/03/25 17:13:18;;;;;;;2.83;1.30;;;;;;;20.06;31.37;93949.00;5059670;28;20074;-88
2023/03/25 17:15:46;;;;;;;9.20;1.58;;;;;;;20.71;30.91;93969.34;5075759;28;20020;-88
2023/03/25 17:18:13;;;;;;;5.50;1.63;;;;;;;20.67;30.90;93960.50;5076344;28;20024;-88
2023/03/25 17:20:41;;;;;;;8.75;2.03;;;;;;;20.23;31.23;93963.91;5075899;28;20033;-88
2023/03/25 17:23:26;;;;;;;4.55;1.33;;;;;;;20.18;32.03;93951.63;5059432;28;20060;-87
2023/03/25 17:26:00;;;;;;;5.00;1.38;;;;;;;20.34;32.26;93957.00;5076025;28;20028;-88
2023/03/25 17:28:28;;;;;;;12.18;1.85;;;;;;;19.86;33.02;93978.06;5058803;28;20025;-87
2023/03/25 17:30:54;;;;;;;5.03;1.70;;;;;;;19.84;33.24;93968.88;5076295;28;20386;-86
2023/03/25 17:33:32;;;;;;;6.25;1.65;;;;;;;20.20;33.10;93978.66;5075554;28;20033;-86
2023/03/25 17:35:59;;;;;;;12.30;1.80;;;;;;;19.90;33.49;93980.81;5059485;28;20051;-87
2023/03/25 17:38:32;;;;;;;7.68;2.00;;;;;;;19.91;33.52;93969.84;5059362;28;20314;-87
2023/03/25 17:40:59;;;;;;;;;;;;;;;20.88;32.38;93986.13;5059506;28;20122;-87
2023/03/25 17:43:25;;;;;;;6.47;1.58;;;;;;;19.68;34.33;93979.44;5059330;28;19908;-88
2023/03/25 17:45:50;;;;;;;7.20;1.50;;;;;;;19.05;35.73;93984.72;5059070;28;20085;-89
2023/03/25 17:48:16;;;;;;;6.95;1.83;;;;;;;19.64;35.12;93990.69;5059132;28;20434;-88
2023/03/25 17:50:49;;;;;;;5.85;1.92;;;;;;;19.34;35.48;93984.88;5075553;28;20029;-88
2023/03/25 17:53:15;;;;;;;6.65;2.10;;;;;;;18.92;36.11;93986.56;5058995;28;20029;-88
2023/03/25 17:55:40;;;;;;;17.42;2.55;;;;;;;19.51;35.73;93999.81;5075637;28;20073;-88
2023/03/25 17:58:07;;;;;;;10.40;2.10;;;;;;;19.23;35.88;93995.16;5059091;28;20111;-88
2023/03/25 18:00:34;;;;;;;7.40;1.92;;;;;;;19.24;35.76;93993.28;5075457;28;20372;-88
2023/03/25 18:03:00;;;;;;;7.45;1.95;;;;;;;19.36;35.52;93988.72;5059047;28;20153;-88
2023/03/25 18:05:25;;;;;;;9.40;1.50;;;;;;;19.02;36.22;93997.91;5074167;28;20024;-89
2023/03/25 18:07:51;;;;;;;7.95;1.70;;;;;;;19.18;36.08;94000.69;5075495;28;20315;-87
2023/03/25 18:10:18;;;;;;;9.55;2.15;;;;;;;19.71;34.78;94005.31;5075361;28;20090;-88
2023/03/25 18:12:44;;;;;;;3.63;1.60;;;;;;;18.74;34.40;93998.50;5075543;28;20176;-87
2023/03/25 18:15:10;;;;;;;7.85;1.70;;;;;;;18.94;33.55;93999.53;5059121;28;20024;-87
2023/03/25 18:17:52;;;;;;;6.32;1.60;;;;;;;19.15;33.94;94019.94;5058953;28;20020;-88
2023/03/25 18:20:22;;;;;;;7.82;2.13;;;;;;;18.97;33.61;93995.41;5075310;28;20028;-88
2023/03/25 18:22:47;;;;;;;8.93;2.15;;;;;;;18.96;33.18;94018.56;5075373;28;20094;-87
2023/03/25 18:25:13;;;;;;;5.22;2.00;;;;;;;18.78;33.58;94015.28;5075420;28;20032;-88
2023/03/25 18:27:39;;;;;;;9.63;1.88;;;;;;;19.01;33.37;94020.22;5075383;28;20054;-89
2023/03/25 18:30:30;;;;;;;6.35;1.38;;;;;;;19.10;32.60;94020.91;5058796;28;20071;-88
2023/03/25 18:32:56;;;;;;;11.43;1.58;;;;;;;18.74;32.48;94014.41;5058614;28;20028;-88
2023/03/25 18:35:22;;;;;;;3.83;1.50;;;;;;;18.56;33.02;94027.06;5058826;28;20411;-87
2023/03/25 18:37:47;;;;;;;5.13;1.58;;;;;;;18.53;32.64;94007.25;5058522;28;20103;-88
2023/03/25 18:40:22;;;;;;;7.85;1.67;;;;;;;18.79;32.62;94020.28;5077580;28;20099;-89
2023/03/25 18:42:49;;;;;;;6.18;1.67;;;;;;;18.56;32.83;94016.44;5079024;28;20060;-87
2023/03/25 18:45:15;;;;;;;4.35;1.30;;;;;;;18.44;32.19;94025.91;5078918;28;20035;-88
2023/03/25 18:47:40;;;;;;;5.47;1.13;;;;;;;18.36;32.13;94016.91;5062414;28;20119;-89
2023/03/25 18:50:26;;;;;;;4.10;1.48;;;;;;;18.90;31.73;94025.16;5078712;28;20054;-87
2023/03/25 18:52:53;;;;;;;8.00;1.85;;;;;;;18.56;31.89;94011.91;5078566;28;20028;-88
2023/03/25 18:55:18;;;;;;;3.78;1.13;;;;;;;18.79;31.23;94014.97;5076836;28;20020;-87
2023/03/25 18:57:43;;;;;;;3.92;1.20;;;;;;;18.44;31.15;94015.28;5062128;28;20441;-87
2023/03/25 19:00:22;;;;;;;4.20;1.30;;;;;;;18.83;31.22;94014.31;5058577;28;20064;-88
2023/03/25 19:02:49;;;;;;;6.15;1.40;;;;;;;18.40;31.33;94019.72;5042704;28;20025;-88
2023/03/25 19:05:16;;;;;;;3.67;1.17;;;;;;;18.68;31.33;94023.66;5059766;28;20453;-88
2023/03/25 19:07:42;;;;;;;8.43;1.40;;;;;;;18.53;31.35;94028.47;5058778;28;20326;-88
2023/03/25 19:10:13;;;;;;;2.60;0.85;;;;;;;18.63;30.98;94027.28;5041979;28;20032;-88
2023/03/25 19:12:38;;;;;;;3.05;1.15;;;;;;;18.23;31.43;94020.63;5058455;28;20422;-87
2023/03/25 19:15:04;;;;;;;4.38;1.02;;;;;;;18.09;31.29;94029.59;5042213;28;20028;-88
2023/03/25 19:17:29;;;;;;;5.75;1.23;;;;;;;18.07;31.48;94029.16;5070602;28;20021;-89
2023/03/25 19:19:55;;;;;;;5.80;1.10;;;;;;;18.44;31.01;94031.22;5077972;28;20414;-89
2023/03/25 19:22:20;;;;;;;3.17;0.88;;;;;;;18.56;30.96;94037.66;5061882;28;20537;-89
2023/03/25 19:24:46;;;;;;;4.10;1.00;;;;;;;17.95;31.50;94029.84;5061830;28;20024;-90
2023/03/25 19:27:12;;;;;;;7.68;1.60;;;;;;;17.78;31.03;94024.63;5078298;28;20024;-90
2023/03/25 19:29:37;;;;;;;4.22;1.20;;;;;;;18.00;31.14;94028.09;5061399;28;20342;-90
2023/03/25 19:32:03;;;;;;;3.72;1.20;;;;;;;18.02;30.95;94032.00;5094758;28;20025;-89
2023/03/25 19:34:30;;;;;;;4.15;1.02;;;;;;;18.06;30.37;94032.13;5061508;28;20122;-89
2023/03/25 19:37:01;;;;;;;5.15;1.00;;;;;;;18.05;30.14;94026.06;5077880;28;20032;-88
2023/03/25 19:39:27;;;;;;;3.70;1.33;;;;;;;18.08;30.27;94032.59;5078501;28;20021;-88
2023/03/25 19:41:53;;;;;;;3.13;1.02;;;;;;;18.04;29.95;94024.50;5077702;28;20318;-89
2023/03/25 19:44:18;;;;;;;4.88;1.42;;;;;;;18.23;29.39;94026.72;5061340;28;20028;-89
2023/03/25 19:46:44;;;;;;;2.88;1.17;;;;;;;18.28;28.82;94022.28;5078101;28;20028;-89
2023/03/25 19:49:18;;;;;;;5.75;1.02;;;;;;;18.41;28.52;94007.19;5061312;28;20364;-89
2023/03/25 19:51:44;;;;;;;3.33;1.35;;;;;;;18.50;28.37;94024.59;5060941;28;20521;-90
2023/03/25 19:54:12;;;;;;;3.05;1.02;;;;;;;18.21;28.28;94023.56;5077438;28;20028;-90
2023/03/25 19:56:38;;;;;;;4.40;1.20;;;;;;;18.87;27.93;94020.50;5061169;28;20082;-90
2023/03/25 19:59:04;;;;;;;2.55;0.95;;;;;;;18.35;28.00;94022.53;5077361;28;20068;-89
2023/03/25 20:01:29;;;;;;;3.00;0.90;;;;;;;18.15;28.32;94030.19;5061033;28;20052;-89
2023/03/25 20:03:55;;;;;;;3.25;1.02;;;;;;;18.01;27.93;94016.38;5061033;28;20110;-89
2023/03/25 20:06:20;;;;;;;3.72;1.00;;;;;;;18.17;27.40;94014.72;5077471;28;20028;-89
2023/03/25 20:08:46;;;;;;;2.97;1.00;;;;;;;18.16;27.76;94020.38;5060927;28;20024;-89
2023/03/25 20:11:11;;;;;;;6.82;1.13;;;;;;;17.95;27.62;94011.28;5060901;28;20052;-89
2023/03/25 20:13:37;;;;;;;2.95;0.90;;;;;;;17.92;27.35;94013.78;5077455;28;20092;-89
2023/03/25 20:16:03;;;;;;;2.42;0.80;;;;;;;18.21;27.02;94012.97;5060757;28;20025;-89
2023/03/25 20:18:29;;;;;;;2.35;1.00;;;;;;;18.21;27.11;94018.28;5060516;28;20028;-89
2023/03/25 20:20:54;;;;;;;3.25;1.25;;;;;;;18.00;27.14;94018.25;5060627;28;20028;-89
2023/03/25 20:23:20;;;;;;;2.80;0.80;;;;;;;17.93;27.38;94012.69;5060705;28;20024;-89
2023/03/25 20:25:46;;;;;;;2.45;1.05;;;;;;;17.94;27.57;94020.34;5075534;28;20024;-89
2023/03/25 20:28:11;;;;;;;2.90;0.80;;;;;;;18.25;27.29;94028.25;5060675;28;20051;-89
2023/03/25 20:30:37;;;;;;;4.75;0.85;;;;;;;18.23;27.15;94026.72;5060250;28;20025;-88
2023/03/25 20:33:02;;;;;;;7.32;1.40;;;;;;;18.01;27.26;94019.81;5076876;28;20028;-89
2023/03/25 20:35:29;;;;;;;3.25;1.00;;;;;;;18.63;27.05;94027.28;5076856;28;20050;-88
2023/03/25 20:37:55;;;;;;;2.13;0.75;;;;;;;18.75;26.53;94021.25;5060388;28;20024;-89
2023/03/25 20:40:20;;;;;;;4.03;1.00;;;;;;;18.12;26.83;94022.88;5060085;28;20078;-89
2023/03/25 20:42:47;;;;;;;4.28;0.73;;;;;;;18.69;26.51;94030.50;5060323;28;20025;-90
2023/03/25 20:45:16;;;;;;;4.75;1.05;;;;;;;18.09;26.73;94029.59;5059927;28;20032;-90
2023/03/25 20:47:41;;;;;;;3.13;0.70;;;;;;;18.12;27.14;94022.88;5076341;28;20020;-88
2023/03/25 20:50:09;;;;;;;5.15;1.10;;;;;;;18.33;27.08;94030.84;5076409;28;20028;-90
2023/03/25 20:52:35;;;;;;;3.22;1.00;;;;;;;18.01;27.09;94030.44;5076286;28;20024;-90
2023/03/25 20:55:01;;;;;;;6.05;1.30;;;;;;;17.90;27.09;94022.06;5076211;28;20434;-89
2023/03/25 20:57:26;;;;;;;3.53;0.90;;;;;;;18.22;26.87;94030.47;5076645;28;20074;-90
2023/03/25 20:59:52;;;;;;;4.38;1.23;;;;;;;17.97;27.04;94029.50;5075990;28;20039;-89
2023/03/25 21:02:18;;;;;;;4.30;1.00;;;;;;;17.86;27.09;94028.31;5075732;28;20354;-88
2023/03/25 21:04:44;;;;;;;2.40;0.90;;;;;;;17.97;26.94;94018.13;5076387;28;20500;-90
2023/03/25 21:07:10;;;;;;;4.63;1.20;;;;;;;17.87;26.91;94017.41;5059835;28;20105;-88
2023/03/25 21:09:36;;;;;;;4.05;0.70;;;;;;;17.99;26.55;94026.53;5076259;28;20029;-89
2023/03/25 21:12:02;;;;;;;2.60;0.90;;;;;;;18.04;26.62;94031.66;5060056;28;20162;-89
2023/03/25 21:14:27;;;;;;;4.63;1.05;;;;;;;17.58;26.88;94026.91;5059691;28;20025;-88
2023/03/25 21:16:53;;;;;;;2.13;0.80;;;;;;;18.35;26.16;94035.78;5059748;28;20017;-89
2023/03/25 21:19:19;;;;;;;1.40;0.80;;;;;;;18.03;26.37;94038.06;5060061;28;20023;-89
2023/03/25 21:21:44;;;;;;;2.08;0.70;;;;;;;18.03;26.26;94032.75;5059716;28;20021;-89
2023/03/25 21:24:10;;;;;;;1.77;0.63;;;;;;;17.66;26.55;94030.63;5059303;28;20504;-89
2023/03/25 21:26:35;;;;;;;2.72;0.70;;;;;;;18.01;26.28;94037.59;5076083;28;20425;-89
2023/03/25 21:29:01;;;;;;;3.38;0.90;;;;;;;18.13;26.07;94048.28;5076062;28;20078;-89
2023/03/25 21:31:27;;;;;;;2.25;0.90;;;;;;;17.91;26.01;94044.03;5075780;28;20028;-89
2023/03/25 21:33:54;;;;;;;5.53;0.90;;;;;;;17.88;26.06;94040.16;5077146;28;20032;-89
2023/03/25 21:36:23;;;;;;;3.22;0.77;;;;;;;18.13;25.88;94035.03;5059865;28;20306;-88
2023/03/25 21:38:48;;;;;;;5.32;1.02;;;;;;;18.31;25.73;94037.56;5075662;28;20062;-89
2023/03/25 21:41:14;;;;;;;1.75;0.70;;;;;;;17.67;25.80;94045.41;5075782;28;20028;-89
2023/03/25 21:43:41;;;;;;;2.50;0.70;;;;;;;18.47;25.19;94041.16;5059774;28;20380;-89
2023/03/25 21:46:09;;;;;;;6.15;1.05;;;;;;;18.56;25.22;94042.97;5059774;28;20024;-90
2023/03/25 21:48:38;;;;;;;2.40;0.77;;;;;;;18.12;25.44;94033.50;5075595;28;20024;-89
2023/03/25 21:51:08;;;;;;;4.07;0.90;;;;;;;18.68;25.27;94034.28;5059622;28;20109;-90
2023/03/25 21:53:42;;;;;;;4.70;0.98;;;;;;;18.04;25.49;94031.66;5075590;28;20060;-89
2023/03/25 21:56:09;;;;;;;2.03;0.60;;;;;;;17.81;25.90;94024.00;5075834;28;20031;-90
2023/03/25 21:58:36;;;;;;;3.05;0.75;;;;;;;18.35;25.52;94022.53;5075511;28;20336;-90
2023/03/25 22:01:10;;;;;;;2.05;0.85;;;;;;;18.12;25.58;94025.53;5058539;28;20032;-89
2023/03/25 22:03:36;;;;;;;1.83;0.80;;;;;;;17.97;26.09;94023.44;5058915;28;20025;-90
2023/03/25 22:06:04;;;;;;;2.10;0.85;;;;;;;18.13;25.79;94019.13;5075376;28;20473;-90
2023/03/25 22:08:29;;;;;;;4.85;0.88;;;;;;;18.22;25.68;94030.47;5075356;28;20020;-89
2023/03/25 22:11:10;;;;;;;2.05;0.65;;;;;;;18.16;25.93;94023.03;5075532;28;20023;-88
2023/03/25 22:13:36;;;;;;;1.20;0.60;;;;;;;17.93;25.93;94015.34;5077117;28;20064;-89
2023/03/25 22:16:03;;;;;;;1.58;0.68;;;;;;;18.31;25.46;94011.81;5079408;28;20035;-90
2023/03/25 22:18:31;;;;;;;2.22;0.80;;;;;;;18.42;25.38;94020.16;5062641;28;20421;-90
2023/03/25 22:21:05;;;;;;;1.50;0.65;;;;;;;18.18;25.46;94013.63;5062556;28;20028;-89
2023/03/25 22:23:31;;;;;;;1.10;0.60;;;;;;;18.21;25.73;94007.66;5080718;28;20028;-89
2023/03/25 22:25:59;;;;;;;2.67;0.77;;;;;;;17.77;25.69;93999.22;5062898;28;20422;-91
2023/03/25 22:28:25;;;;;;;2.17;0.70;;;;;;;17.95;25.65;93990.09;5075866;28;20031;-89
2023/03/25 22:30:50;;;;;;;1.92;0.73;;;;;;;18.11;25.79;93996.69;5059291;28;20023;-89
2023/03/25 22:33:16;;;;;;;4.72;0.85;;;;;;;17.70;26.04;93988.38;5075998;28;20021;-90
2023/03/25 22:35:42;;;;;;;3.15;0.80;;;;;;;17.67;26.60;93993.22;5075650;28;20028;-89
2023/03/25 22:38:07;;;;;;;3.70;0.60;;;;;;;17.49;26.91;93999.69;5059183;28;20127;-90
2023/03/25 22:40:33;;;;;;;1.58;0.80;;;;;;;17.46;27.38;93998.47;5075352;28;20086;-89
2023/03/25 22:42:58;;;;;;;2.97;1.00;;;;;;;17.59;27.57;93991.38;5059111;28;20032;-89
2023/03/25 22:45:24;;;;;;;2.45;0.98;;;;;;;17.12;28.23;93989.59;5059258;28;20064;-88
2023/03/25 22:47:49;;;;;;;3.53;1.10;;;;;;;17.21;28.22;93977.09;5075709;28;20032;-90
2023/03/25 22:50:15;;;;;;;3.28;1.08;;;;;;;17.22;28.56;93989.25;5043415;28;20024;-89
2023/03/25 22:52:40;;;;;;;5.65;1.08;;;;;;;17.31;28.64;93988.44;5058946;28;20029;-88
2023/03/25 22:55:06;;;;;;;2.03;0.70;;;;;;;17.13;29.16;93988.50;5059162;28;20114;-90
2023/03/25 22:57:32;;;;;;;3.92;0.88;;;;;;;17.23;28.67;93980.19;5058709;28;20504;-89
2023/03/25 22:59:58;;;;;;;2.78;1.00;;;;;;;17.85;28.46;93992.31;5042126;28;20025;-89
2023/03/25 23:02:23;;;;;;;1.65;0.80;;;;;;;17.19;29.33;93991.75;5042442;28;20115;-89
2023/03/25 23:04:49;;;;;;;2.42;0.95;;;;;;;17.10;29.53;93979.34;5058872;28;20050;-89
2023/03/25 23:07:15;;;;;;;6.15;0.90;;;;;;;17.31;29.07;93980.50;5042263;28;20040;-89
2023/03/25 23:09:40;;;;;;;2.55;0.90;;;;;;;17.37;28.77;93987.16;5058532;28;20032;-90
2023/03/25 23:12:08;;;;;;;5.68;1.10;;;;;;;17.47;29.03;93994.75;5058362;28;20025;-90
2023/03/25 23:14:35;;;;;;;4.47;1.20;;;;;;;17.07;29.41;93990.56;5042021;28;20055;-89
2023/03/25 23:17:01;;;;;;;4.25;1.10;;;;;;;17.16;29.53;93981.78;5058590;28;20123;-89
2023/03/25 23:19:26;;;;;;;3.13;1.00;;;;;;;17.00;29.34;93982.31;5058594;28;20032;-90
2023/03/25 23:21:53;;;;;;;3.33;0.90;;;;;;;17.12;29.39;93980.88;5058233;28;20127;-91
2023/03/25 23:24:18;;;;;;;2.40;0.93;;;;;;;17.15;29.14;93977.59;5041432;28;20037;-90
2023/03/25 23:26:45;;;;;;;3.67;0.73;;;;;;;17.37;29.46;93982.66;5041302;28;20051;-89
2023/03/25 23:29:16;;;;;;;4.07;0.80;;;;;;;17.34;29.48;93980.63;5042136;28;20033;-90
2023/03/25 23:31:42;;;;;;;3.42;1.00;;;;;;;17.36;29.47;93989.03;5041248;28;20029;-89
2023/03/25 23:34:13;;;;;;;3.25;0.80;;;;;;;17.60;29.04;93989.53;5058450;28;20032;-89
2023/03/25 23:36:38;;;;;;;3.88;0.90;;;;;;;17.22;29.08;93988.47;5041477;28;20033;-90
2023/03/25 23:39:06;;;;;;;2.65;0.90;;;;;;;17.55;28.93;93995.78;5041409;28;20094;-89
2023/03/25 23:41:32;;;;;;;2.67;0.93;;;;;;;17.29;29.54;93994.03;5057882;28;20142;-88
2023/03/25 23:43:57;;;;;;;6.72;1.48;;;;;;;17.35;29.63;93998.06;5041499;28;20501;-89
2023/03/25 23:46:24;;;;;;;3.08;0.90;;;;;;;17.75;29.44;93998.78;5041859;28;20029;-90
2023/03/25 23:48:54;;;;;;;1.65;0.63;;;;;;;17.36;29.63;94002.28;5041295;28;20388;-89
2023/03/25 23:51:21;;;;;;;4.03;1.08;;;;;;;17.76;29.54;93997.69;5057863;28;20031;-88
2023/03/25 23:53:48;;;;;;;3.95;0.98;;;;;;;17.26;29.82;93999.97;5057667;28;20029;-88
2023/03/25 23:56:16;;;;;;;2.97;1.05;;;;;;;17.09;30.19;93991.03;5057850;28;20025;-88
2023/03/25 23:58:42;;;;;;;2.75;0.90;;;;;;;17.19;30.09;93997.81;5057727;28;20124;-89
